Time;durP1;ratioP1;P1;durP2;ratioP2;P2;SDS_P1;SDS_P2;PMS_P1;PMS_P2;Temp;Humidity;BMP_temperature;BMP_pressure;BME280_temperature;BME280_humidity;BME280_pressure;Samples;Min_cycle;Max_cycle;Signal;HPM_P1;HPM_P2
2021/10/15 00:06:01;;;;;;;3.85;1.60;;;12.00;99.90;;;;;;6741508;88;20277;-78
2021/10/15 00:16:02;;;;;;;5.35;2.03;;;11.60;99.90;;;;;;6741011;88;20211;-77
2021/10/15 00:26:02;;;;;;;5.33;1.87;;;11.40;99.90;;;;;;6741605;88;20188;-78
2021/10/15 00:36:03;;;;;;;6.03;2.43;;;11.10;99.90;;;;;;6740560;88;20509;-77
2021/10/15 00:46:04;;;;;;;5.35;1.85;;;10.90;99.90;;;;;;6739572;88;20569;-77
2021/10/15 00:56:45;;;;;;;7.00;2.03;;;10.50;99.90;;;;;;6738629;77;20833;-78
2021/10/15 01:06:46;;;;;;;5.75;2.17;;;10.40;99.90;;;;;;6736348;88;20707;-78
2021/10/15 01:16:47;;;;;;;4.78;1.87;;;10.10;99.90;;;;;;6736426;88;20453;-77
2021/10/15 01:26:47;;;;;;;5.93;2.20;;;10.00;99.90;;;;;;6736259;88;20220;-79
2021/10/15 01:36:48;;;;;;;5.80;2.10;;;9.80;99.90;;;;;;6734333;88;20570;-78
2021/10/15 01:46:48;;;;;;;7.78;2.60;;;9.50;99.90;;;;;;6732180;88;20209;-77
2021/10/15 01:56:49;;;;;;;5.80;2.22;;;9.40;99.90;;;;;;6735299;88;20795;-77
2021/10/15 02:06:49;;;;;;;7.20;2.90;;;9.40;99.90;;;;;;6732314;88;20218;-78
2021/10/15 02:16:50;;;;;;;5.15;2.00;;;9.40;99.90;;;;;;6736585;88;20289;-77
2021/10/15 02:26:50;;;;;;;7.57;2.40;;;9.50;99.90;;;;;;6736730;88;20348;-77
2021/10/15 02:36:51;;;;;;;4.70;2.12;;;9.50;99.90;;;;;;6737018;88;20189;-78
2021/10/15 02:46:51;;;;;;;6.35;2.20;;;9.50;99.90;;;;;;6737367;88;20213;-78
2021/10/15 02:56:52;;;;;;;5.30;2.42;;;9.60;99.90;;;;;;6736102;88;20389;-78
2021/10/15 03:06:52;;;;;;;4.20;2.03;;;9.60;99.90;;;;;;6735728;88;20733;-77
2021/10/15 03:16:53;;;;;;;7.45;2.12;;;9.70;99.90;;;;;;6737107;88;20640;-77
2021/10/15 03:26:53;;;;;;;7.37;2.42;;;9.60;99.90;;;;;;6736683;88;21063;-77
2021/10/15 03:36:54;;;;;;;7.37;2.55;;;9.50;99.90;;;;;;6736797;88;20242;-79
2021/10/15 03:46:54;;;;;;;6.40;2.40;;;9.40;99.90;;;;;;6736371;88;20275;-78
2021/10/15 03:56:55;;;;;;;6.43;2.25;;;9.40;99.90;;;;;;6736426;88;20195;-78
2021/10/15 04:06:56;;;;;;;7.15;2.33;;;9.30;99.90;;;;;;6732977;88;20283;-79
2021/10/15 04:16:57;;;;;;;7.87;3.08;;;9.10;99.90;;;;;;6735542;88;20200;-80
2021/10/15 04:26:57;;;;;;;6.65;2.47;;;9.00;99.90;;;;;;6742249;88;20222;-77
2021/10/15 04:36:58;;;;;;;6.40;3.00;;;9.00;99.90;;;;;;6736025;88;20203;-78
2021/10/15 04:46:58;;;;;;;6.82;3.15;;;9.00;99.90;;;;;;6736621;88;20517;-78
2021/10/15 04:56:59;;;;;;;7.10;2.87;;;9.10;99.90;;;;;;6737233;88;20207;-77
2021/10/15 05:06:59;;;;;;;7.47;2.80;;;9.20;99.90;;;;;;6739017;88;20612;-79
2021/10/15 05:17:02;;;;;;;6.70;3.10;;;9.30;99.90;;;;;;6737561;88;20745;-80
2021/10/15 05:27:02;;;;;;;5.72;3.03;;;9.50;99.90;;;;;;6735247;88;20323;-80
2021/10/15 05:37:03;;;;;;;7.78;3.05;;;9.30;99.90;;;;;;6735964;88;20192;-79
2021/10/15 05:47:04;;;;;;;6.57;3.10;;;9.30;99.90;;;;;;6738017;88;20192;-79
2021/10/15 06:08:32;;;;;;;8.10;3.20;;;9.60;99.90;;;;;;6738501;88;20276;-79
2021/10/15 06:17:28;;;;;;;7.90;3.50;;;9.70;99.90;;;;;;6738342;88;20177;-78
2021/10/15 06:27:29;;;;;;;9.77;4.03;;;9.80;99.90;;;;;;6738635;88;20203;-79
2021/10/15 06:37:29;;;;;;;7.07;3.35;;;9.90;99.90;;;;;;6737755;88;20175;-78
2021/10/15 06:47:30;;;;;;;8.15;3.60;;;10.20;99.90;;;;;;6740195;77;20384;-76
2021/10/15 06:57:30;;;;;;;9.15;3.33;;;10.30;99.90;;;;;;6747159;87;20695;-76
2021/10/15 07:07:32;;;;;;;8.43;3.85;;;10.40;99.90;;;;;;6747932;88;20309;-74
2021/10/15 07:17:32;;;;;;;7.75;3.53;;;10.30;99.90;;;;;;6748373;88;20686;-76
2021/10/15 07:27:34;;;;;;;7.62;3.65;;;10.70;99.90;;;;;;6749095;87;20627;-76
2021/10/15 07:37:36;;;;;;;8.57;3.33;;;10.70;99.90;;;;;;6749086;88;20792;-76
2021/10/15 07:47:36;;;;;;;11.27;3.40;;;10.90;99.90;;;;;;6748895;88;21082;-76
2021/10/15 07:57:37;;;;;;;9.02;3.40;;;11.10;99.90;;;;;;6748778;87;20184;-76
2021/10/15 08:07:38;;;;;;;8.73;3.10;;;11.50;99.90;;;;;;6749077;88;20198;-75
2021/10/15 08:17:38;;;;;;;7.65;3.00;;;11.90;99.90;;;;;;6747624;88;20223;-76
2021/10/15 08:27:39;;;;;;;6.45;2.92;;;12.10;99.90;;;;;;6747285;88;20202;-76
2021/10/15 08:37:40;;;;;;;6.70;2.67;;;12.50;99.90;;;;;;6746797;87;20666;-76
2021/10/15 08:47:41;;;;;;;4.93;2.17;;;12.60;99.90;;;;;;6746974;88;20278;-76
2021/10/15 08:57:53;;;;;;;6.00;2.40;;;12.80;99.90;;;;;;6743427;88;20257;-76
2021/10/15 09:07:54;;;;;;;4.95;2.30;;;13.20;99.90;;;;;;6746726;87;20188;-76
2021/10/15 09:17:55;;;;;;;7.03;2.40;;;13.70;99.90;;;;;;6748963;87;20195;-76
2021/10/15 09:27:55;;;;;;;5.12;2.35;;;13.90;99.90;;;;;;6749541;87;20216;-75
2021/10/15 09:38:01;;;;;;;3.30;1.92;;;14.10;99.90;;;;;;6749409;88;20214;-77
2021/10/15 09:48:24;;;;;;;5.00;2.25;;;14.20;99.90;;;;;;6749284;87;20183;-77
2021/10/15 09:58:26;;;;;;;6.60;2.47;;;14.20;99.90;;;;;;6745410;88;20200;-76
2021/10/15 10:08:27;;;;;;;5.85;2.35;;;14.30;99.90;;;;;;6748726;88;20230;-76
2021/10/15 10:18:31;;;;;;;6.90;2.37;;;14.40;99.90;;;;;;6748487;87;20330;-77
2021/10/15 10:28:33;;;;;;;3.95;2.22;;;14.60;99.90;;;;;;6747503;87;20371;-77
2021/10/15 10:38:33;;;;;;;5.72;2.80;;;14.50;99.90;;;;;;6747396;87;20184;-76
2021/10/15 10:48:54;;;;;;;11.55;5.03;;;14.20;99.90;;;;;;6747353;88;20231;-75
2021/10/15 10:58:54;;;;;;;13.07;6.65;;;13.40;99.90;;;;;;6744679;88;20192;-75
2021/10/15 11:09:34;;;;;;;12.37;5.83;;;12.70;99.90;;;;;;6748746;88;20253;-76
2021/10/15 11:19:35;;;;;;;11.85;6.12;;;12.50;99.90;;;;;;6748175;88;20757;-75
2021/10/15 11:29:49;;;;;;;10.35;6.40;;;12.60;99.90;;;;;;6748023;88;20195;-77
2021/10/15 11:40:09;;;;;;;10.25;5.35;;;12.70;99.90;;;;;;6747704;88;20176;-75
2021/10/15 11:50:10;;;;;;;11.27;6.10;;;13.10;99.90;;;;;;6747667;87;20199;-75
2021/10/15 12:00:11;;;;;;;9.65;6.05;;;13.10;99.90;;;;;;6747411;88;20777;-77
2021/10/15 12:10:13;;;;;;;12.60;6.93;;;13.10;99.90;;;;;;6747084;88;20290;-75
2021/10/15 12:20:13;;;;;;;14.30;7.18;;;13.00;99.90;;;;;;6749924;88;20214;-77
2021/10/15 12:30:17;;;;;;;10.38;7.15;;;12.80;99.90;;;;;;6754322;87;20236;-76
2021/10/15 12:40:25;;;;;;;9.93;6.72;;;12.70;99.90;;;;;;6755402;87;20262;-75
2021/10/15 13:00:29;;;;;;;6.37;4.28;;;12.50;99.90;;;;;;6737628;88;20235;-79
2021/10/15 13:10:31;;;;;;;8.02;4.20;;;12.80;99.90;;;;;;6735786;88;20227;-77
2021/10/15 13:20:32;;;;;;;8.57;3.35;;;13.30;99.90;;;;;;6734985;88;20197;-76
2021/10/15 13:30:33;;;;;;;6.78;2.70;;;13.40;99.90;;;;;;6731365;88;20204;-77
2021/10/15 13:40:46;;;;;;;5.95;2.65;;;13.40;99.90;;;;;;6734863;88;20189;-78
2021/10/15 13:50:47;;;;;;;4.93;2.53;;;13.70;99.90;;;;;;6731471;88;20325;-77
2021/10/15 14:00:50;;;;;;;4.97;2.42;;;14.00;99.90;;;;;;6739777;88;20177;-77
2021/10/15 14:10:51;;;;;;;7.55;2.50;;;14.20;99.90;;;;;;6742925;88;20346;-78
2021/10/15 14:20:51;;;;;;;5.28;2.60;;;14.10;99.90;;;;;;6744451;88;20238;-79
2021/10/15 14:30:52;;;;;;;4.43;2.30;;;14.00;99.90;;;;;;6741400;88;20338;-77
2021/10/15 14:40:53;;;;;;;7.30;2.00;;;13.80;99.90;;;;;;6739782;88;20536;-78
2021/10/15 14:50:53;;;;;;;5.40;1.90;;;13.90;99.90;;;;;;6741729;88;20509;-78
2021/10/15 15:00:56;;;;;;;5.78;1.90;;;13.80;99.90;;;;;;6741881;88;20196;-78
2021/10/15 15:10:57;;;;;;;4.57;1.60;;;14.30;99.90;;;;;;6737450;88;20220;-77
2021/10/15 15:21:02;;;;;;;5.10;1.75;;;14.50;99.90;;;;;;6740526;88;20599;-78
2021/10/15 15:31:05;;;;;;;5.93;1.97;;;14.30;99.90;;;;;;6737947;88;20210;-78
2021/10/15 15:41:05;;;;;;;6.45;2.30;;;13.60;99.90;;;;;;6736508;88;20583;-78
2021/10/15 15:51:07;;;;;;;7.53;1.90;;;13.70;99.90;;;;;;6740794;88;20385;-79
2021/10/15 16:01:08;;;;;;;6.10;2.40;;;13.90;99.90;;;;;;6736869;88;20210;-78
2021/10/15 16:11:08;;;;;;;5.93;2.37;;;13.90;99.90;;;;;;6741024;88;20205;-77
2021/10/15 16:21:09;;;;;;;7.40;2.50;;;13.60;99.90;;;;;;6741021;88;20301;-78
2021/10/15 16:31:12;;;;;;;5.70;2.53;;;13.00;99.90;;;;;;6750257;88;20532;-77
2021/10/15 16:41:12;;;;;;;6.82;2.47;;;12.40;99.90;;;;;;6740072;88;20203;-78
2021/10/15 16:51:13;;;;;;;6.00;2.45;;;12.00;99.90;;;;;;6739712;88;20193;-77
2021/10/15 17:01:14;;;;;;;6.70;2.17;;;11.70;99.90;;;;;;6728809;88;20188;-78
2021/10/15 17:11:14;;;;;;;7.60;2.47;;;11.30;99.90;;;;;;6721921;88;20613;-77
2021/10/15 17:21:15;;;;;;;7.15;2.22;;;11.20;99.90;;;;;;6720109;88;20319;-78
2021/10/15 17:31:16;;;;;;;7.07;2.35;;;10.90;99.90;;;;;;6716270;88;20173;-78
2021/10/15 17:41:16;;;;;;;7.95;2.60;;;11.00;99.90;;;;;;6725719;88;20197;-77
2021/10/15 17:51:17;;;;;;;13.27;3.92;;;10.70;99.90;;;;;;6722082;88;21089;-77
2021/10/15 18:01:18;;;;;;;9.48;2.92;;;10.50;99.90;;;;;;6721791;88;20292;-77
2021/10/15 18:11:18;;;;;;;6.57;3.35;;;10.50;99.90;;;;;;6717962;88;20222;-78
2021/10/15 18:21:19;;;;;;;9.45;3.60;;;10.70;99.90;;;;;;6719799;88;20268;-78
2021/10/15 18:31:19;;;;;;;8.30;3.53;;;10.40;99.90;;;;;;6716145;88;20256;-75
2021/10/15 18:41:21;;;;;;;9.52;4.80;;;10.40;99.90;;;;;;6720605;88;20793;-76
2021/10/15 19:01:24;;;;;;;12.98;5.47;;;10.00;99.90;;;;;;6717733;88;20250;-76
2021/10/15 19:11:25;;;;;;;13.57;5.35;;;9.80;99.90;;;;;;6706939;88;20233;-75
2021/10/15 19:21:25;;;;;;;9.65;5.45;;;9.60;99.90;;;;;;6718266;88;20213;-75
2021/10/15 19:31:27;;;;;;;11.18;5.65;;;9.60;99.90;;;;;;6702962;88;20268;-77
2021/10/15 19:41:27;;;;;;;10.45;4.90;;;9.40;99.90;;;;;;6697566;88;20328;-75
2021/10/15 19:51:28;;;;;;;10.77;5.30;;;9.20;99.90;;;;;;6701972;88;20185;-75
2021/10/15 20:01:30;;;;;;;12.70;5.93;;;9.50;99.90;;;;;;6700743;88;20181;-77
2021/10/15 20:11:35;;;;;;;12.77;7.10;;;9.10;99.90;;;;;;6701769;88;20593;-75
2021/10/15 20:21:36;;;;;;;11.70;5.70;;;9.20;99.90;;;;;;6701085;88;20317;-76
2021/10/15 20:31:36;;;;;;;11.70;5.82;;;8.90;99.90;;;;;;6701027;88;20197;-75
2021/10/15 20:41:37;;;;;;;11.03;5.87;;;8.70;99.90;;;;;;6698140;88;20971;-76
2021/10/15 20:51:38;;;;;;;14.70;6.50;;;8.90;99.90;;;;;;6702224;88;20508;-77
2021/10/15 21:01:38;;;;;;;12.32;6.65;;;8.80;99.90;;;;;;6704293;88;20298;-75
2021/10/15 21:11:38;;;;;;;12.75;7.87;;;8.50;99.90;;;;;;6719419;88;20200;-76
2021/10/15 21:21:39;;;;;;;12.85;7.12;;;8.30;99.90;;;;;;6720372;88;20246;-76
2021/10/15 21:31:40;;;;;;;15.05;7.72;;;8.20;99.90;;;;;;6717925;88;20337;-75
2021/10/15 21:41:40;;;;;;;16.42;7.72;;;8.10;99.90;;;;;;6722100;88;20363;-75
2021/10/15 21:51:41;;;;;;;14.00;7.28;;;8.30;99.90;;;;;;6722435;88;21083;-76
2021/10/15 22:01:41;;;;;;;14.50;7.07;;;7.90;99.90;;;;;;6713704;88;20638;-76
2021/10/15 22:11:42;;;;;;;13.65;7.18;;;7.60;99.90;;;;;;6703676;88;20210;-76
2021/10/15 22:21:42;;;;;;;13.13;7.53;;;7.50;99.90;;;;;;6704484;88;20648;-76
2021/10/15 22:31:45;;;;;;;16.35;7.40;;;7.40;99.90;;;;;;6706187;88;20219;-76
2021/10/15 22:41:45;;;;;;;16.70;8.38;;;7.30;99.90;;;;;;6701342;88;20253;-78
2021/10/15 22:51:46;;;;;;;17.77;7.75;;;7.30;99.90;;;;;;6706501;88;20202;-77
2021/10/15 23:01:47;;;;;;;23.73;8.32;;;7.10;99.90;;;;;;6704986;88;20226;-75
2021/10/15 23:11:47;;;;;;;18.58;8.18;;;7.00;99.90;;;;;;6704543;88;20270;-76
2021/10/15 23:21:48;;;;;;;33.15;7.93;;;6.90;99.90;;;;;;6704578;88;20186;-78
2021/10/15 23:31:49;;;;;;;17.17;7.72;;;6.60;99.90;;;;;;6701883;88;20231;-76
2021/10/15 23:41:50;;;;;;;77.22;9.15;;;6.60;99.90;;;;;;6703823;88;20730;-76
2021/10/15 23:51:50;;;;;;;17.55;8.45;;;6.60;99.90;;;;;;6704352;88;20211;-79
